createdAt,value
2023-01-27T00:01:15.657Z,17.00
2023-01-27T00:06:17.061Z,19.90
2023-01-27T00:11:37.310Z,21.00
2023-01-27T00:16:38.703Z,17.27
2023-01-27T00:21:58.890Z,17.92
2023-01-27T00:27:00.330Z,21.42
2023-01-27T00:32:20.682Z,19.13
2023-01-27T00:42:23.510Z,22.55
2023-01-27T00:47:24.916Z,19.50
2023-01-27T00:52:26.482Z,20.95
2023-01-27T00:57:27.952Z,22.88
2023-01-27T01:02:29.415Z,20.83
2023-01-27T01:07:30.870Z,21.70
2023-01-27T01:12:32.317Z,24.20
2023-01-27T01:17:33.745Z,24.60
2023-01-27T01:22:35.165Z,17.95
2023-01-27T01:27:36.608Z,20.70
2023-01-27T01:32:38.033Z,20.75
2023-01-27T01:37:39.470Z,29.80
2023-01-27T01:42:52.520Z,19.80
2023-01-27T01:47:53.924Z,22.95
2023-01-27T01:52:56.001Z,28.17
2023-01-27T01:57:57.490Z,31.10
2023-01-27T02:02:59.022Z,25.02
2023-01-27T02:08:16.612Z,26.15
2023-01-27T02:13:18.005Z,26.83
2023-01-27T02:18:19.882Z,26.08
2023-01-27T02:23:52.243Z,26.27
2023-01-27T02:29:06.648Z,24.55
2023-01-27T02:34:12.371Z,26.35
2023-01-27T02:39:16.770Z,31.63
2023-01-27T02:44:18.304Z,30.52
2023-01-27T02:49:19.723Z,31.67
2023-01-27T02:54:21.114Z,29.63
2023-01-27T02:59:22.558Z,27.02
2023-01-27T03:04:24.113Z,29.73
2023-01-27T03:09:25.617Z,27.10
2023-01-27T03:14:45.809Z,30.58
2023-01-27T03:19:53.269Z,30.23
2023-01-27T03:24:54.705Z,29.13
2023-01-27T03:29:56.203Z,27.17
2023-01-27T03:34:57.846Z,25.98
2023-01-27T03:40:18.106Z,27.42
2023-01-27T03:50:43.100Z,27.13
2023-01-27T03:55:44.546Z,27.25
2023-01-27T04:00:47.867Z,31.05
2023-01-27T04:06:07.894Z,25.73
2023-01-27T04:11:28.634Z,29.92
2023-01-27T04:16:31.700Z,35.75
2023-01-27T04:21:33.922Z,29.20
2023-01-27T04:26:35.539Z,32.35
2023-01-27T04:31:36.980Z,32.50
2023-01-27T04:36:40.119Z,33.45
2023-01-27T04:41:41.619Z,25.88
2023-01-27T04:46:43.061Z,29.95
2023-01-27T04:51:46.233Z,27.00
2023-01-27T04:57:01.159Z,31.42
2023-01-27T05:02:04.676Z,35.75
2023-01-27T05:07:06.284Z,31.80
2023-01-27T05:12:08.014Z,26.85
2023-01-27T05:17:09.474Z,34.28
2023-01-27T05:22:11.408Z,28.77
2023-01-27T05:27:12.836Z,30.02
2023-01-27T05:32:14.249Z,29.38
2023-01-27T05:37:15.980Z,30.00
2023-01-27T05:42:18.527Z,31.83
2023-01-27T05:47:19.964Z,32.75
2023-01-27T05:52:21.414Z,39.30
2023-01-27T05:57:22.887Z,38.70
2023-01-27T06:02:24.545Z,32.72
2023-01-27T06:07:25.983Z,34.58
2023-01-27T06:12:27.460Z,27.15
2023-01-27T06:17:30.336Z,32.17
2023-01-27T06:22:31.805Z,33.53
2023-01-27T06:27:33.271Z,41.88
2023-01-27T06:32:37.888Z,38.20
2023-01-27T06:37:39.492Z,44.15
2023-01-27T06:42:43.490Z,46.17
2023-01-27T06:47:45.017Z,42.17
2023-01-27T06:52:46.574Z,39.33
2023-01-27T06:57:48.434Z,45.20
2023-01-27T07:02:50.726Z,40.53
2023-01-27T07:07:52.326Z,39.97
2023-01-27T07:12:53.805Z,40.20
2023-01-27T07:17:58.701Z,37.35
2023-01-27T07:23:02.152Z,39.28
2023-01-27T07:28:03.866Z,32.65
2023-01-27T07:33:06.298Z,40.58
2023-01-27T07:38:08.049Z,32.13
2023-01-27T07:43:10.382Z,41.42
2023-01-27T07:48:12.884Z,34.55
2023-01-27T07:53:14.787Z,36.28
2023-01-27T07:58:16.734Z,35.38
2023-01-27T08:03:23.988Z,33.45
2023-01-27T08:08:25.492Z,31.00
2023-01-27T08:13:27.180Z,32.22
2023-01-27T08:18:29.773Z,30.33
2023-01-27T08:23:32.649Z,29.48
2023-01-27T08:28:36.860Z,25.45
2023-01-27T08:33:38.865Z,22.00
2023-01-27T08:38:41.460Z,25.70
2023-01-27T08:43:43.401Z,21.30
2023-01-27T08:48:44.968Z,23.17
2023-01-27T08:53:46.411Z,17.17
2023-01-27T08:58:48.552Z,18.50
2023-01-27T09:03:50.126Z,16.42
2023-01-27T09:09:11.754Z,15.40
2023-01-27T09:14:13.933Z,16.55
2023-01-27T09:19:15.890Z,15.73
2023-01-27T09:24:18.121Z,15.25
2023-01-27T09:29:19.767Z,12.18
2023-01-27T09:34:21.310Z,11.15
2023-01-27T09:39:23.600Z,11.35
2023-01-27T09:44:45.963Z,13.27
2023-01-27T09:49:50.358Z,9.73
2023-01-27T09:55:12.295Z,9.88
2023-01-27T10:00:33.282Z,12.57
2023-01-27T10:05:37.928Z,13.00
2023-01-27T10:10:56.135Z,10.60
2023-01-27T10:16:13.640Z,9.52
2023-01-27T10:21:33.888Z,9.85
2023-01-27T10:26:42.687Z,9.25
2023-01-27T10:31:54.384Z,9.85
2023-01-27T10:37:12.913Z,9.45
2023-01-27T10:42:31.378Z,10.35
2023-01-27T10:47:42.889Z,9.27
2023-01-27T10:52:52.684Z,10.27
2023-01-27T10:58:02.156Z,7.50
2023-01-27T11:03:21.562Z,9.03
2023-01-27T11:08:27.365Z,8.13
2023-01-27T11:13:31.107Z,8.75
2023-01-27T11:18:36.190Z,8.88
2023-01-27T11:23:43.379Z,8.23
2023-01-27T11:29:00.188Z,7.13
2023-01-27T11:34:19.219Z,7.30
2023-01-27T11:39:20.845Z,7.32
2023-01-27T11:44:29.571Z,9.25
2023-01-27T11:49:35.566Z,9.13
2023-01-27T11:54:43.031Z,10.02
2023-01-27T11:59:45.693Z,8.13
2023-01-27T12:05:00.120Z,7.72
2023-01-27T12:10:01.867Z,12.80
2023-01-27T12:15:05.122Z,8.05
2023-01-27T12:20:15.138Z,9.70
2023-01-27T12:25:28.057Z,7.55
2023-01-27T12:30:34.844Z,13.85
2023-01-27T12:35:37.339Z,12.07
2023-01-27T12:40:43.083Z,8.70
2023-01-27T12:45:44.888Z,7.10
2023-01-27T12:50:52.648Z,9.23
2023-01-27T12:56:13.804Z,7.10
2023-01-27T13:01:23.729Z,8.65
2023-01-27T13:06:59.338Z,7.28
2023-01-27T13:12:04.801Z,8.52
2023-01-27T13:17:27.913Z,9.52
2023-01-27T13:22:37.823Z,7.20
2023-01-27T13:27:40.825Z,6.72
2023-01-27T13:32:47.568Z,7.80
2023-01-27T13:37:57.298Z,8.57
2023-01-27T13:43:34.302Z,6.83
2023-01-27T13:48:43.210Z,6.85
2023-01-27T13:53:47.576Z,10.93
2023-01-27T13:59:17.240Z,7.13
2023-01-27T14:04:21.978Z,9.10
2023-01-27T14:09:49.613Z,5.70
2023-01-27T14:15:03.918Z,7.10
2023-01-27T14:20:17.995Z,6.53
2023-01-27T14:25:31.075Z,7.68
2023-01-27T14:30:41.426Z,7.95
2023-01-27T14:41:05.227Z,6.75
2023-01-27T14:46:41.333Z,7.45
2023-01-27T14:51:49.731Z,7.80
2023-01-27T14:57:08.250Z,6.03
2023-01-27T15:02:15.963Z,4.60
2023-01-27T15:07:34.113Z,5.13
2023-01-27T15:12:48.340Z,5.13
2023-01-27T15:18:01.888Z,9.32
2023-01-27T15:23:06.929Z,6.78
2023-01-27T15:28:17.774Z,5.75
2023-01-27T15:33:52.037Z,6.45
2023-01-27T15:39:09.244Z,7.75
2023-01-27T15:44:18.221Z,8.27
2023-01-27T15:49:27.181Z,9.15
2023-01-27T15:54:33.529Z,9.13
2023-01-27T15:59:59.515Z,6.28
2023-01-27T16:05:26.222Z,7.30
2023-01-27T16:10:33.579Z,11.52
2023-01-27T16:15:35.701Z,7.63
2023-01-27T16:20:44.063Z,10.32
2023-01-27T16:25:50.763Z,8.27
2023-01-27T16:31:05.754Z,8.60
2023-01-27T16:36:29.166Z,9.75
2023-01-27T16:41:39.063Z,65.72
2023-01-27T16:46:45.496Z,9.80
2023-01-27T16:51:58.155Z,19.92
2023-01-27T16:57:01.706Z,10.07
2023-01-27T17:02:16.062Z,10.40
2023-01-27T17:07:17.703Z,10.10
2023-01-27T17:12:50.351Z,7.50
2023-01-27T17:17:52.212Z,9.63
2023-01-27T17:22:55.383Z,15.05
2023-01-27T17:28:00.269Z,11.73
2023-01-27T17:33:04.847Z,20.00
2023-01-27T17:38:16.460Z,13.45
2023-01-27T17:43:37.665Z,22.52
2023-01-27T17:48:51.414Z,22.65
2023-01-27T17:53:54.226Z,17.77
2023-01-27T17:59:07.079Z,7.88
2023-01-27T18:04:11.850Z,12.18
2023-01-27T18:09:18.243Z,10.88
2023-01-27T18:14:20.887Z,8.82
2023-01-27T18:19:24.891Z,8.48
2023-01-27T18:24:28.271Z,7.97
2023-01-27T18:29:36.284Z,11.25
2023-01-27T18:34:51.600Z,10.45
2023-01-27T18:39:53.760Z,8.75
2023-01-27T18:44:56.080Z,9.27
2023-01-27T18:50:00.620Z,9.10
2023-01-27T18:55:13.517Z,10.13
2023-01-27T19:00:18.021Z,12.50
2023-01-27T19:05:25.667Z,13.60
2023-01-27T19:10:30.637Z,20.85
2023-01-27T19:15:44.266Z,18.52
2023-01-27T19:20:46.081Z,27.45
2023-01-27T19:25:50.971Z,9.88
2023-01-27T19:30:52.517Z,11.60
2023-01-27T19:36:00.650Z,11.18
2023-01-27T19:41:03.243Z,12.52
2023-01-27T19:46:14.734Z,14.32
2023-01-27T19:51:17.456Z,10.30
2023-01-27T19:56:21.484Z,11.82
2023-01-27T20:01:24.951Z,8.35
2023-01-27T20:06:28.570Z,9.57
2023-01-27T20:11:31.992Z,10.98
2023-01-27T20:16:34.031Z,11.63
2023-01-27T20:21:35.587Z,7.18
2023-01-27T20:26:37.510Z,11.52
2023-01-27T20:31:39.598Z,9.43
2023-01-27T20:36:41.326Z,10.10
2023-01-27T20:41:42.813Z,10.20
2023-01-27T20:46:44.275Z,14.68
2023-01-27T20:51:45.745Z,10.80
2023-01-27T20:56:47.226Z,9.88
2023-01-27T21:01:48.756Z,12.57
2023-01-27T21:06:50.204Z,9.82
2023-01-27T21:11:51.719Z,11.27
2023-01-27T21:16:53.262Z,12.20
2023-01-27T21:21:54.905Z,13.15
2023-01-27T21:26:57.197Z,13.52
2023-01-27T21:31:58.921Z,12.90
2023-01-27T21:37:00.436Z,11.60
2023-01-27T21:42:01.842Z,9.40
2023-01-27T21:47:04.708Z,6.65
2023-01-27T21:52:06.138Z,14.00
2023-01-27T21:57:07.595Z,9.05
2023-01-27T22:02:13.616Z,7.63
2023-01-27T22:07:16.900Z,5.85
2023-01-27T22:12:18.515Z,6.25
2023-01-27T22:17:20.197Z,6.15
2023-01-27T22:22:21.652Z,6.63
2023-01-27T22:27:24.139Z,4.95
2023-01-27T22:32:25.591Z,4.25
2023-01-27T22:37:27.040Z,5.00
2023-01-27T22:42:28.491Z,4.80
2023-01-27T22:47:29.944Z,4.63
2023-01-27T22:52:31.417Z,6.13
2023-01-27T22:57:33.417Z,7.10
2023-01-27T23:02:36.962Z,5.57
2023-01-27T23:07:38.462Z,5.68
2023-01-27T23:12:40.073Z,6.05
2023-01-27T23:17:41.529Z,6.35
2023-01-27T23:22:43.009Z,7.03
2023-01-27T23:27:44.483Z,5.43
2023-01-27T23:32:45.967Z,5.13
2023-01-27T23:37:47.365Z,6.22
2023-01-27T23:42:48.797Z,4.05
2023-01-27T23:47:50.250Z,3.53
2023-01-27T23:52:51.745Z,4.28
2023-01-27T23:57:53.158Z,5.13
